sensor_id;sensor_type;location;lat;lon;timestamp;P1;durP1;ratioP1;P2;durP2;ratioP2
54121;SDS011;40029;58.708;50.190;2023-03-02T00:02:02;31.23;;;9.90;;
54121;SDS011;40029;58.708;50.190;2023-03-02T00:07:16;36.47;;;10.03;;
54121;SDS011;40029;58.708;50.190;2023-03-02T00:09:52;21.67;;;7.40;;
54121;SDS011;40029;58.708;50.190;2023-03-02T00:12:27;14.70;;;6.63;;
54121;SDS011;40029;58.708;50.190;2023-03-02T00:15:02;15.25;;;6.70;;
54121;SDS011;40029;58.708;50.190;2023-03-02T00:17:34;16.25;;;5.00;;
54121;SDS011;40029;58.708;50.190;2023-03-02T00:20:06;12.13;;;5.90;;
54121;SDS011;40029;58.708;50.190;2023-03-02T00:22:42;18.50;;;7.03;;
54121;SDS011;40029;58.708;50.190;2023-03-02T00:25:14;15.33;;;6.97;;
54121;SDS011;40029;58.708;50.190;2023-03-02T00:27:46;17.30;;;6.68;;
54121;SDS011;40029;58.708;50.190;2023-03-02T00:30:17;17.97;;;6.57;;
54121;SDS011;40029;58.708;50.190;2023-03-02T00:32:48;14.35;;;6.35;;
54121;SDS011;40029;58.708;50.190;2023-03-02T00:35:19;15.30;;;6.90;;
54121;SDS011;40029;58.708;50.190;2023-03-02T00:37:50;22.73;;;8.07;;
54121;SDS011;40029;58.708;50.190;2023-03-02T00:40:22;19.73;;;7.67;;
54121;SDS011;40029;58.708;50.190;2023-03-02T00:42:53;20.77;;;7.27;;
54121;SDS011;40029;58.708;50.190;2023-03-02T00:45:42;18.70;;;6.40;;
54121;SDS011;40029;58.708;50.190;2023-03-02T00:48:13;13.30;;;6.25;;
54121;SDS011;40029;58.708;50.190;2023-03-02T00:50:44;9.87;;;4.33;;
54121;SDS011;40029;58.708;50.190;2023-03-02T00:53:16;13.50;;;4.50;;
54121;SDS011;40029;58.708;50.190;2023-03-02T00:55:56;8.17;;;3.57;;
54121;SDS011;40029;58.708;50.190;2023-03-02T00:58:29;11.20;;;3.83;;
54121;SDS011;40029;58.708;50.190;2023-03-02T01:01:09;8.40;;;3.27;;
54121;SDS011;40029;58.708;50.190;2023-03-02T01:03:44;9.47;;;3.83;;
54121;SDS011;40029;58.708;50.190;2023-03-02T01:06:18;5.00;;;3.00;;
54121;SDS011;40029;58.708;50.190;2023-03-02T01:08:50;8.18;;;3.05;;
54121;SDS011;40029;58.708;50.190;2023-03-02T01:11:21;12.40;;;4.20;;
54121;SDS011;40029;58.708;50.190;2023-03-02T01:13:52;11.87;;;3.57;;
54121;SDS011;40029;58.708;50.190;2023-03-02T01:16:42;10.33;;;4.70;;
54121;SDS011;40029;58.708;50.190;2023-03-02T01:19:13;10.83;;;4.40;;
54121;SDS011;40029;58.708;50.190;2023-03-02T01:21:45;19.53;;;8.03;;
54121;SDS011;40029;58.708;50.190;2023-03-02T01:24:16;17.20;;;7.17;;
54121;SDS011;40029;58.708;50.190;2023-03-02T01:26:47;14.67;;;7.83;;
54121;SDS011;40029;58.708;50.190;2023-03-02T01:29:18;14.03;;;6.13;;
54121;SDS011;40029;58.708;50.190;2023-03-02T01:31:49;17.87;;;6.60;;
54121;SDS011;40029;58.708;50.190;2023-03-02T01:34:20;16.67;;;7.27;;
54121;SDS011;40029;58.708;50.190;2023-03-02T01:36:51;17.93;;;5.20;;
54121;SDS011;40029;58.708;50.190;2023-03-02T01:39:22;9.07;;;4.43;;
54121;SDS011;40029;58.708;50.190;2023-03-02T01:41:53;28.13;;;9.23;;
54121;SDS011;40029;58.708;50.190;2023-03-02T01:44:43;15.27;;;7.37;;
54121;SDS011;40029;58.708;50.190;2023-03-02T01:52:34;29.00;;;9.77;;
54121;SDS011;40029;58.708;50.190;2023-03-02T01:55:11;27.03;;;9.70;;
54121;SDS011;40029;58.708;50.190;2023-03-02T01:57:48;27.23;;;11.33;;
54121;SDS011;40029;58.708;50.190;2023-03-02T02:00:30;41.28;;;12.75;;
54121;SDS011;40029;58.708;50.190;2023-03-02T02:03:12;18.53;;;7.40;;
54121;SDS011;40029;58.708;50.190;2023-03-02T02:05:55;45.97;;;13.37;;
54121;SDS011;40029;58.708;50.190;2023-03-02T02:08:34;26.90;;;9.02;;
54121;SDS011;40029;58.708;50.190;2023-03-02T02:11:07;19.13;;;6.80;;
54121;SDS011;40029;58.708;50.190;2023-03-02T02:13:38;15.67;;;5.57;;
54121;SDS011;40029;58.708;50.190;2023-03-02T02:16:28;31.13;;;9.73;;
54121;SDS011;40029;58.708;50.190;2023-03-02T02:21:36;18.43;;;5.60;;
54121;SDS011;40029;58.708;50.190;2023-03-02T02:27:23;12.83;;;5.20;;
54121;SDS011;40029;58.708;50.190;2023-03-02T02:30:00;12.33;;;5.40;;
54121;SDS011;40029;58.708;50.190;2023-03-02T02:32:36;7.13;;;3.40;;
54121;SDS011;40029;58.708;50.190;2023-03-02T02:35:12;14.87;;;5.07;;
54121;SDS011;40029;58.708;50.190;2023-03-02T02:37:49;16.23;;;6.23;;
54121;SDS011;40029;58.708;50.190;2023-03-02T02:43:20;25.10;;;8.17;;
54121;SDS011;40029;58.708;50.190;2023-03-02T02:45:53;21.73;;;6.73;;
54121;SDS011;40029;58.708;50.190;2023-03-02T02:48:26;14.63;;;5.95;;
54121;SDS011;40029;58.708;50.190;2023-03-02T02:51:00;15.00;;;5.67;;
54121;SDS011;40029;58.708;50.190;2023-03-02T02:56:37;19.97;;;8.03;;
54121;SDS011;40029;58.708;50.190;2023-03-02T02:59:27;33.40;;;9.60;;
54121;SDS011;40029;58.708;50.190;2023-03-02T03:02:03;25.63;;;9.77;;
54121;SDS011;40029;58.708;50.190;2023-03-02T03:04:34;11.27;;;4.37;;
54121;SDS011;40029;58.708;50.190;2023-03-02T03:07:05;21.30;;;5.93;;
54121;SDS011;40029;58.708;50.190;2023-03-02T03:09:37;11.03;;;4.67;;
54121;SDS011;40029;58.708;50.190;2023-03-02T03:12:19;20.87;;;6.83;;
54121;SDS011;40029;58.708;50.190;2023-03-02T03:14:56;14.17;;;5.07;;
54121;SDS011;40029;58.708;50.190;2023-03-02T03:17:28;12.17;;;5.63;;
54121;SDS011;40029;58.708;50.190;2023-03-02T03:20:03;13.33;;;4.43;;
54121;SDS011;40029;58.708;50.190;2023-03-02T03:22:46;8.73;;;3.20;;
54121;SDS011;40029;58.708;50.190;2023-03-02T03:25:19;13.07;;;5.00;;
54121;SDS011;40029;58.708;50.190;2023-03-02T03:27:52;13.52;;;4.43;;
54121;SDS011;40029;58.708;50.190;2023-03-02T03:30:24;14.27;;;4.93;;
54121;SDS011;40029;58.708;50.190;2023-03-02T03:32:56;10.40;;;4.93;;
54121;SDS011;40029;58.708;50.190;2023-03-02T03:35:27;13.90;;;5.43;;
54121;SDS011;40029;58.708;50.190;2023-03-02T03:37:58;10.63;;;3.60;;
54121;SDS011;40029;58.708;50.190;2023-03-02T03:40:30;10.40;;;4.27;;
54121;SDS011;40029;58.708;50.190;2023-03-02T03:43:06;10.87;;;3.17;;
54121;SDS011;40029;58.708;50.190;2023-03-02T03:45:55;13.60;;;4.37;;
54121;SDS011;40029;58.708;50.190;2023-03-02T03:48:26;7.63;;;2.67;;
54121;SDS011;40029;58.708;50.190;2023-03-02T03:50:58;18.50;;;4.87;;
54121;SDS011;40029;58.708;50.190;2023-03-02T03:53:30;14.77;;;5.50;;
54121;SDS011;40029;58.708;50.190;2023-03-02T03:56:01;19.43;;;7.00;;
54121;SDS011;40029;58.708;50.190;2023-03-02T03:58:51;22.70;;;6.87;;
54121;SDS011;40029;58.708;50.190;2023-03-02T04:01:41;15.23;;;5.87;;
54121;SDS011;40029;58.708;50.190;2023-03-02T04:04:17;16.00;;;5.77;;
54121;SDS011;40029;58.708;50.190;2023-03-02T04:06:52;18.57;;;6.83;;
54121;SDS011;40029;58.708;50.190;2023-03-02T04:09:24;22.97;;;9.10;;
54121;SDS011;40029;58.708;50.190;2023-03-02T04:11:57;25.30;;;7.87;;
54121;SDS011;40029;58.708;50.190;2023-03-02T04:14:29;21.07;;;7.70;;
54121;SDS011;40029;58.708;50.190;2023-03-02T04:17:00;25.17;;;8.97;;
54121;SDS011;40029;58.708;50.190;2023-03-02T04:19:36;16.43;;;5.67;;
54121;SDS011;40029;58.708;50.190;2023-03-02T04:22:27;13.97;;;3.70;;
54121;SDS011;40029;58.708;50.190;2023-03-02T04:24:58;11.30;;;3.83;;
54121;SDS011;40029;58.708;50.190;2023-03-02T04:27:29;10.43;;;5.10;;
54121;SDS011;40029;58.708;50.190;2023-03-02T04:30:02;13.40;;;4.03;;
54121;SDS011;40029;58.708;50.190;2023-03-02T04:32:51;10.43;;;3.60;;
54121;SDS011;40029;58.708;50.190;2023-03-02T04:35:24;13.37;;;3.27;;
54121;SDS011;40029;58.708;50.190;2023-03-02T04:37:56;10.57;;;4.30;;
54121;SDS011;40029;58.708;50.190;2023-03-02T04:40:27;10.97;;;4.53;;
54121;SDS011;40029;58.708;50.190;2023-03-02T04:42:59;9.10;;;3.13;;
54121;SDS011;40029;58.708;50.190;2023-03-02T04:45:29;12.43;;;5.03;;
54121;SDS011;40029;58.708;50.190;2023-03-02T04:48:01;11.07;;;3.97;;
54121;SDS011;40029;58.708;50.190;2023-03-02T04:50:32;4.00;;;2.10;;
54121;SDS011;40029;58.708;50.190;2023-03-02T04:53:04;5.43;;;2.70;;
54121;SDS011;40029;58.708;50.190;2023-03-02T04:55:35;10.37;;;4.60;;
54121;SDS011;40029;58.708;50.190;2023-03-02T04:58:06;9.13;;;3.63;;
54121;SDS011;40029;58.708;50.190;2023-03-02T05:00:38;11.23;;;4.37;;
54121;SDS011;40029;58.708;50.190;2023-03-02T05:03:09;11.33;;;3.73;;
54121;SDS011;40029;58.708;50.190;2023-03-02T05:05:40;16.73;;;5.53;;
54121;SDS011;40029;58.708;50.190;2023-03-02T05:08:11;10.57;;;3.57;;
54121;SDS011;40029;58.708;50.190;2023-03-02T05:10:44;8.67;;;3.60;;
54121;SDS011;40029;58.708;50.190;2023-03-02T05:13:15;6.73;;;2.10;;
54121;SDS011;40029;58.708;50.190;2023-03-02T05:15:46;10.90;;;4.13;;
54121;SDS011;40029;58.708;50.190;2023-03-02T05:18:18;9.23;;;4.13;;
54121;SDS011;40029;58.708;50.190;2023-03-02T05:20:50;6.50;;;3.17;;
54121;SDS011;40029;58.708;50.190;2023-03-02T05:23:41;13.67;;;4.13;;
54121;SDS011;40029;58.708;50.190;2023-03-02T05:26:12;10.80;;;5.27;;
54121;SDS011;40029;58.708;50.190;2023-03-02T05:28:44;5.90;;;3.57;;
54121;SDS011;40029;58.708;50.190;2023-03-02T05:31:37;6.37;;;3.63;;
54121;SDS011;40029;58.708;50.190;2023-03-02T05:34:09;11.43;;;3.97;;
54121;SDS011;40029;58.708;50.190;2023-03-02T05:36:43;12.37;;;4.20;;
54121;SDS011;40029;58.708;50.190;2023-03-02T05:39:15;7.13;;;3.20;;
54121;SDS011;40029;58.708;50.190;2023-03-02T05:41:46;13.43;;;3.80;;
54121;SDS011;40029;58.708;50.190;2023-03-02T05:44:18;10.20;;;4.37;;
54121;SDS011;40029;58.708;50.190;2023-03-02T05:46:49;7.30;;;3.00;;
54121;SDS011;40029;58.708;50.190;2023-03-02T05:49:20;18.80;;;5.80;;
54121;SDS011;40029;58.708;50.190;2023-03-02T05:51:51;6.63;;;3.17;;
54121;SDS011;40029;58.708;50.190;2023-03-02T05:54:22;6.03;;;2.67;;
54121;SDS011;40029;58.708;50.190;2023-03-02T05:56:54;9.63;;;4.07;;
54121;SDS011;40029;58.708;50.190;2023-03-02T05:59:25;5.20;;;1.87;;
54121;SDS011;40029;58.708;50.190;2023-03-02T06:01:56;9.60;;;4.23;;
54121;SDS011;40029;58.708;50.190;2023-03-02T06:04:28;7.80;;;2.50;;
54121;SDS011;40029;58.708;50.190;2023-03-02T06:06:59;10.47;;;3.33;;
54121;SDS011;40029;58.708;50.190;2023-03-02T06:09:49;12.40;;;3.93;;
54121;SDS011;40029;58.708;50.190;2023-03-02T06:12:20;3.07;;;1.77;;
54121;SDS011;40029;58.708;50.190;2023-03-02T06:14:51;5.30;;;2.03;;
54121;SDS011;40029;58.708;50.190;2023-03-02T06:17:22;10.77;;;4.03;;
54121;SDS011;40029;58.708;50.190;2023-03-02T06:20:12;10.23;;;3.27;;
54121;SDS011;40029;58.708;50.190;2023-03-02T06:23:02;17.53;;;5.63;;
54121;SDS011;40029;58.708;50.190;2023-03-02T06:25:34;29.50;;;9.43;;
54121;SDS011;40029;58.708;50.190;2023-03-02T06:28:06;11.77;;;4.50;;
54121;SDS011;40029;58.708;50.190;2023-03-02T06:30:37;9.73;;;3.63;;
54121;SDS011;40029;58.708;50.190;2023-03-02T06:33:08;5.07;;;2.33;;
54121;SDS011;40029;58.708;50.190;2023-03-02T06:35:39;8.77;;;3.30;;
54121;SDS011;40029;58.708;50.190;2023-03-02T06:38:11;11.67;;;4.33;;
54121;SDS011;40029;58.708;50.190;2023-03-02T06:40:43;7.33;;;3.70;;
54121;SDS011;40029;58.708;50.190;2023-03-02T06:43:14;24.57;;;8.63;;
54121;SDS011;40029;58.708;50.190;2023-03-02T06:45:45;10.67;;;4.27;;
54121;SDS011;40029;58.708;50.190;2023-03-02T06:48:16;15.10;;;5.43;;
54121;SDS011;40029;58.708;50.190;2023-03-02T06:50:47;13.07;;;4.50;;
54121;SDS011;40029;58.708;50.190;2023-03-02T06:53:19;9.67;;;3.37;;
54121;SDS011;40029;58.708;50.190;2023-03-02T06:55:52;5.45;;;2.88;;
54121;SDS011;40029;58.708;50.190;2023-03-02T06:58:23;9.40;;;3.30;;
54121;SDS011;40029;58.708;50.190;2023-03-02T07:00:54;3.37;;;2.17;;
54121;SDS011;40029;58.708;50.190;2023-03-02T07:03:26;13.90;;;4.87;;
54121;SDS011;40029;58.708;50.190;2023-03-02T07:05:58;9.90;;;3.77;;
54121;SDS011;40029;58.708;50.190;2023-03-02T07:08:29;11.30;;;5.53;;
54121;SDS011;40029;58.708;50.190;2023-03-02T07:11:03;12.50;;;4.50;;
54121;SDS011;40029;58.708;50.190;2023-03-02T07:13:38;12.93;;;5.07;;
54121;SDS011;40029;58.708;50.190;2023-03-02T07:16:13;7.20;;;2.67;;
54121;SDS011;40029;58.708;50.190;2023-03-02T07:18:45;6.47;;;2.43;;
54121;SDS011;40029;58.708;50.190;2023-03-02T07:21:16;11.73;;;4.43;;
54121;SDS011;40029;58.708;50.190;2023-03-02T07:23:47;13.67;;;3.97;;
54121;SDS011;40029;58.708;50.190;2023-03-02T07:26:19;11.57;;;3.70;;
54121;SDS011;40029;58.708;50.190;2023-03-02T07:28:50;5.17;;;1.83;;
54121;SDS011;40029;58.708;50.190;2023-03-02T07:31:39;9.33;;;4.13;;
54121;SDS011;40029;58.708;50.190;2023-03-02T07:34:13;11.70;;;3.58;;
54121;SDS011;40029;58.708;50.190;2023-03-02T07:36:45;11.13;;;4.07;;
54121;SDS011;40029;58.708;50.190;2023-03-02T07:39:17;12.27;;;4.47;;
54121;SDS011;40029;58.708;50.190;2023-03-02T07:41:48;15.23;;;5.57;;
54121;SDS011;40029;58.708;50.190;2023-03-02T07:44:38;8.47;;;3.63;;
54121;SDS011;40029;58.708;50.190;2023-03-02T07:47:09;4.73;;;2.53;;
54121;SDS011;40029;58.708;50.190;2023-03-02T07:49:40;13.23;;;4.53;;
54121;SDS011;40029;58.708;50.190;2023-03-02T07:52:30;9.97;;;3.13;;
54121;SDS011;40029;58.708;50.190;2023-03-02T07:55:01;28.40;;;6.90;;
54121;SDS011;40029;58.708;50.190;2023-03-02T07:57:50;3.73;;;2.23;;
54121;SDS011;40029;58.708;50.190;2023-03-02T08:00:22;7.43;;;2.30;;
54121;SDS011;40029;58.708;50.190;2023-03-02T08:02:53;5.90;;;3.70;;
54121;SDS011;40029;58.708;50.190;2023-03-02T08:05:24;5.77;;;3.40;;
54121;SDS011;40029;58.708;50.190;2023-03-02T08:07:55;7.37;;;3.40;;
54121;SDS011;40029;58.708;50.190;2023-03-02T08:10:45;4.23;;;1.43;;
54121;SDS011;40029;58.708;50.190;2023-03-02T08:13:16;6.33;;;2.80;;
54121;SDS011;40029;58.708;50.190;2023-03-02T08:15:47;8.53;;;2.97;;
54121;SDS011;40029;58.708;50.190;2023-03-02T08:18:37;9.30;;;3.43;;
54121;SDS011;40029;58.708;50.190;2023-03-02T08:21:10;8.60;;;3.80;;
54121;SDS011;40029;58.708;50.190;2023-03-02T08:23:46;6.70;;;2.67;;
54121;SDS011;40029;58.708;50.190;2023-03-02T08:26:18;11.43;;;3.87;;
54121;SDS011;40029;58.708;50.190;2023-03-02T08:28:50;10.30;;;2.97;;
54121;SDS011;40029;58.708;50.190;2023-03-02T08:31:39;8.10;;;3.40;;
54121;SDS011;40029;58.708;50.190;2023-03-02T08:34:10;7.90;;;2.70;;
54121;SDS011;40029;58.708;50.190;2023-03-02T08:36:42;9.87;;;3.43;;
54121;SDS011;40029;58.708;50.190;2023-03-02T08:39:13;12.00;;;4.10;;
54121;SDS011;40029;58.708;50.190;2023-03-02T08:41:45;5.30;;;3.20;;
54121;SDS011;40029;58.708;50.190;2023-03-02T08:44:16;9.47;;;3.70;;
54121;SDS011;40029;58.708;50.190;2023-03-02T08:46:47;15.83;;;5.43;;
54121;SDS011;40029;58.708;50.190;2023-03-02T08:49:19;10.47;;;4.47;;
54121;SDS011;40029;58.708;50.190;2023-03-02T08:51:51;14.77;;;4.77;;
54121;SDS011;40029;58.708;50.190;2023-03-02T08:54:23;15.00;;;6.00;;
54121;SDS011;40029;58.708;50.190;2023-03-02T08:56:54;7.77;;;3.90;;
54121;SDS011;40029;58.708;50.190;2023-03-02T08:59:25;12.60;;;5.80;;
54121;SDS011;40029;58.708;50.190;2023-03-02T09:01:57;20.77;;;6.37;;
54121;SDS011;40029;58.708;50.190;2023-03-02T09:04:29;8.43;;;3.33;;
54121;SDS011;40029;58.708;50.190;2023-03-02T09:07:00;12.70;;;4.80;;
54121;SDS011;40029;58.708;50.190;2023-03-02T09:09:31;15.13;;;5.50;;
54121;SDS011;40029;58.708;50.190;2023-03-02T09:12:21;9.93;;;4.53;;
54121;SDS011;40029;58.708;50.190;2023-03-02T09:15:10;16.57;;;5.87;;
54121;SDS011;40029;58.708;50.190;2023-03-02T09:17:41;7.00;;;2.83;;
54121;SDS011;40029;58.708;50.190;2023-03-02T09:20:12;5.67;;;3.20;;
54121;SDS011;40029;58.708;50.190;2023-03-02T09:22:44;5.83;;;2.53;;
54121;SDS011;40029;58.708;50.190;2023-03-02T09:25:20;3.87;;;2.70;;
54121;SDS011;40029;58.708;50.190;2023-03-02T09:27:51;8.20;;;3.33;;
54121;SDS011;40029;58.708;50.190;2023-03-02T09:30:22;7.57;;;3.00;;
54121;SDS011;40029;58.708;50.190;2023-03-02T09:32:53;6.50;;;2.83;;
54121;SDS011;40029;58.708;50.190;2023-03-02T09:35:24;9.70;;;4.00;;
54121;SDS011;40029;58.708;50.190;2023-03-02T09:38:14;10.30;;;4.10;;
54121;SDS011;40029;58.708;50.190;2023-03-02T09:54:43;24.67;;;8.40;;
54121;SDS011;40029;58.708;50.190;2023-03-02T09:57:21;14.47;;;6.10;;
54121;SDS011;40029;58.708;50.190;2023-03-02T09:59:57;11.97;;;4.13;;
54121;SDS011;40029;58.708;50.190;2023-03-02T10:02:51;5.77;;;3.57;;
54121;SDS011;40029;58.708;50.190;2023-03-02T10:05:27;4.43;;;2.70;;
54121;SDS011;40029;58.708;50.190;2023-03-02T10:08:14;10.85;;;3.75;;
54121;SDS011;40029;58.708;50.190;2023-03-02T10:13:40;11.57;;;4.70;;
54121;SDS011;40029;58.708;50.190;2023-03-02T10:16:26;11.47;;;3.60;;
54121;SDS011;40029;58.708;50.190;2023-03-02T10:19:08;8.80;;;3.27;;
54121;SDS011;40029;58.708;50.190;2023-03-02T10:22:11;17.07;;;5.77;;
54121;SDS011;40029;58.708;50.190;2023-03-02T10:27:51;10.87;;;4.47;;
54121;SDS011;40029;58.708;50.190;2023-03-02T10:30:34;12.25;;;4.90;;
54121;SDS011;40029;58.708;50.190;2023-03-02T10:33:12;14.20;;;4.87;;
54121;SDS011;40029;58.708;50.190;2023-03-02T10:35:47;12.10;;;4.13;;
54121;SDS011;40029;58.708;50.190;2023-03-02T10:38:22;13.90;;;4.93;;
54121;SDS011;40029;58.708;50.190;2023-03-02T10:43:53;15.00;;;6.03;;
54121;SDS011;40029;58.708;50.190;2023-03-02T10:46:39;15.60;;;5.10;;
54121;SDS011;40029;58.708;50.190;2023-03-02T10:54:35;11.80;;;4.00;;
54121;SDS011;40029;58.708;50.190;2023-03-02T11:00:01;18.97;;;4.87;;
54121;SDS011;40029;58.708;50.190;2023-03-02T11:08:02;15.50;;;5.25;;
54121;SDS011;40029;58.708;50.190;2023-03-02T11:10:55;6.90;;;3.53;;
54121;SDS011;40029;58.708;50.190;2023-03-02T11:13:29;17.50;;;5.67;;
54121;SDS011;40029;58.708;50.190;2023-03-02T11:16:01;10.77;;;5.20;;
54121;SDS011;40029;58.708;50.190;2023-03-02T11:18:49;6.23;;;2.93;;
54121;SDS011;40029;58.708;50.190;2023-03-02T11:37:55;18.63;;;6.33;;
54121;SDS011;40029;58.708;50.190;2023-03-02T11:43:21;37.47;;;10.00;;
54121;SDS011;40029;58.708;50.190;2023-03-02T11:45:59;38.33;;;10.40;;
54121;SDS011;40029;58.708;50.190;2023-03-02T11:48:37;29.27;;;10.37;;
54121;SDS011;40029;58.708;50.190;2023-03-02T11:51:17;27.37;;;9.93;;
54121;SDS011;40029;58.708;50.190;2023-03-02T11:53:54;21.87;;;8.53;;
54121;SDS011;40029;58.708;50.190;2023-03-02T11:56:30;16.77;;;6.90;;
54121;SDS011;40029;58.708;50.190;2023-03-02T11:59:18;12.70;;;5.33;;
54121;SDS011;40029;58.708;50.190;2023-03-02T12:01:51;55.90;;;13.73;;
54121;SDS011;40029;58.708;50.190;2023-03-02T12:04:26;45.13;;;13.10;;
54121;SDS011;40029;58.708;50.190;2023-03-02T12:13:17;18.47;;;7.20;;
54121;SDS011;40029;58.708;50.190;2023-03-02T12:15:50;10.60;;;3.57;;
54121;SDS011;40029;58.708;50.190;2023-03-02T12:20:58;15.37;;;6.17;;
54121;SDS011;40029;58.708;50.190;2023-03-02T12:23:56;32.90;;;10.60;;
54121;SDS011;40029;58.708;50.190;2023-03-02T12:26:31;15.57;;;8.07;;
54121;SDS011;40029;58.708;50.190;2023-03-02T12:31:45;11.80;;;4.60;;
54121;SDS011;40029;58.708;50.190;2023-03-02T12:37:12;21.13;;;6.80;;
54121;SDS011;40029;58.708;50.190;2023-03-02T12:51:23;17.20;;;4.93;;
54121;SDS011;40029;58.708;50.190;2023-03-02T12:54:29;10.33;;;4.53;;
54121;SDS011;40029;58.708;50.190;2023-03-02T12:57:22;15.43;;;7.03;;
54121;SDS011;40029;58.708;50.190;2023-03-02T12:59:53;17.80;;;7.07;;
54121;SDS011;40029;58.708;50.190;2023-03-02T13:02:29;14.80;;;5.63;;
54121;SDS011;40029;58.708;50.190;2023-03-02T13:07:38;8.97;;;3.87;;
54121;SDS011;40029;58.708;50.190;2023-03-02T13:10:41;21.37;;;7.47;;
54121;SDS011;40029;58.708;50.190;2023-03-02T13:13:20;24.92;;;9.35;;
54121;SDS011;40029;58.708;50.190;2023-03-02T13:15:56;27.05;;;11.15;;
54121;SDS011;40029;58.708;50.190;2023-03-02T13:18:30;25.83;;;9.17;;
54121;SDS011;40029;58.708;50.190;2023-03-02T13:21:04;29.50;;;10.30;;
54121;SDS011;40029;58.708;50.190;2023-03-02T13:23:36;29.20;;;11.60;;
54121;SDS011;40029;58.708;50.190;2023-03-02T13:26:23;31.53;;;9.50;;
54121;SDS011;40029;58.708;50.190;2023-03-02T13:29:00;37.00;;;10.83;;
54121;SDS011;40029;58.708;50.190;2023-03-02T13:31:36;15.45;;;6.38;;
54121;SDS011;40029;58.708;50.190;2023-03-02T13:34:20;24.08;;;8.07;;
54121;SDS011;40029;58.708;50.190;2023-03-02T13:36:53;13.75;;;4.53;;
54121;SDS011;40029;58.708;50.190;2023-03-02T13:39:26;21.63;;;7.03;;
54121;SDS011;40029;58.708;50.190;2023-03-02T13:42:01;24.73;;;7.82;;
54121;SDS011;40029;58.708;50.190;2023-03-02T13:44:33;32.92;;;10.05;;
54121;SDS011;40029;58.708;50.190;2023-03-02T13:47:16;17.27;;;7.33;;
54121;SDS011;40029;58.708;50.190;2023-03-02T13:50:04;26.20;;;8.73;;
54121;SDS011;40029;58.708;50.190;2023-03-02T13:52:37;21.63;;;8.53;;
54121;SDS011;40029;58.708;50.190;2023-03-02T13:55:14;43.50;;;13.70;;
54121;SDS011;40029;58.708;50.190;2023-03-02T13:57:50;50.30;;;13.23;;
54121;SDS011;40029;58.708;50.190;2023-03-02T14:00:26;44.00;;;14.13;;
54121;SDS011;40029;58.708;50.190;2023-03-02T14:03:01;77.63;;;20.30;;
54121;SDS011;40029;58.708;50.190;2023-03-02T14:05:33;59.37;;;18.97;;
54121;SDS011;40029;58.708;50.190;2023-03-02T14:08:05;53.93;;;17.03;;
54121;SDS011;40029;58.708;50.190;2023-03-02T14:10:37;97.73;;;25.67;;
54121;SDS011;40029;58.708;50.190;2023-03-02T14:13:10;46.03;;;15.33;;
54121;SDS011;40029;58.708;50.190;2023-03-02T14:15:46;70.33;;;22.73;;
54121;SDS011;40029;58.708;50.190;2023-03-02T14:18:25;86.83;;;29.30;;
54121;SDS011;40029;58.708;50.190;2023-03-02T14:21:16;89.07;;;31.97;;
54121;SDS011;40029;58.708;50.190;2023-03-02T14:23:49;95.93;;;30.10;;
54121;SDS011;40029;58.708;50.190;2023-03-02T14:29:25;113.07;;;31.40;;
54121;SDS011;40029;58.708;50.190;2023-03-02T14:32:01;81.88;;;24.70;;
54121;SDS011;40029;58.708;50.190;2023-03-02T14:34:33;83.93;;;32.33;;
54121;SDS011;40029;58.708;50.190;2023-03-02T14:37:07;79.87;;;28.17;;
54121;SDS011;40029;58.708;50.190;2023-03-02T14:39:45;67.83;;;25.30;;
54121;SDS011;40029;58.708;50.190;2023-03-02T14:42:18;104.03;;;31.77;;
54121;SDS011;40029;58.708;50.190;2023-03-02T14:45:09;134.20;;;39.83;;
54121;SDS011;40029;58.708;50.190;2023-03-02T14:47:40;170.70;;;45.50;;
54121;SDS011;40029;58.708;50.190;2023-03-02T14:50:12;188.43;;;53.93;;
54121;SDS011;40029;58.708;50.190;2023-03-02T14:53:01;190.03;;;54.10;;
54121;SDS011;40029;58.708;50.190;2023-03-02T14:55:33;228.00;;;65.93;;
54121;SDS011;40029;58.708;50.190;2023-03-02T14:58:16;274.70;;;81.53;;
54121;SDS011;40029;58.708;50.190;2023-03-02T15:00:49;204.05;;;52.30;;
54121;SDS011;40029;58.708;50.190;2023-03-02T15:03:20;253.33;;;64.83;;
54121;SDS011;40029;58.708;50.190;2023-03-02T15:05:58;228.03;;;56.57;;
54121;SDS011;40029;58.708;50.190;2023-03-02T15:08:29;227.40;;;58.17;;
54121;SDS011;40029;58.708;50.190;2023-03-02T15:11:01;195.37;;;50.50;;
54121;SDS011;40029;58.708;50.190;2023-03-02T15:13:32;204.67;;;50.53;;
54121;SDS011;40029;58.708;50.190;2023-03-02T15:16:03;169.67;;;44.43;;
54121;SDS011;40029;58.708;50.190;2023-03-02T15:18:34;147.37;;;37.33;;
54121;SDS011;40029;58.708;50.190;2023-03-02T15:21:05;155.23;;;39.27;;
54121;SDS011;40029;58.708;50.190;2023-03-02T15:23:37;148.67;;;40.93;;
54121;SDS011;40029;58.708;50.190;2023-03-02T15:26:09;148.20;;;43.73;;
54121;SDS011;40029;58.708;50.190;2023-03-02T15:28:41;162.27;;;41.03;;
54121;SDS011;40029;58.708;50.190;2023-03-02T15:31:15;153.02;;;41.67;;
54121;SDS011;40029;58.708;50.190;2023-03-02T15:33:47;181.20;;;48.83;;
54121;SDS011;40029;58.708;50.190;2023-03-02T15:36:20;148.50;;;44.00;;
54121;SDS011;40029;58.708;50.190;2023-03-02T15:38:53;119.40;;;36.60;;
54121;SDS011;40029;58.708;50.190;2023-03-02T15:41:24;147.60;;;46.20;;
54121;SDS011;40029;58.708;50.190;2023-03-02T15:44:17;153.13;;;43.00;;
54121;SDS011;40029;58.708;50.190;2023-03-02T15:46:51;136.87;;;41.43;;
54121;SDS011;40029;58.708;50.190;2023-03-02T15:49:24;115.23;;;36.63;;
54121;SDS011;40029;58.708;50.190;2023-03-02T15:51:58;125.22;;;36.97;;
54121;SDS011;40029;58.708;50.190;2023-03-02T15:54:29;159.93;;;46.03;;
54121;SDS011;40029;58.708;50.190;2023-03-02T15:57:00;166.27;;;46.57;;
54121;SDS011;40029;58.708;50.190;2023-03-02T15:59:32;219.40;;;56.93;;
54121;SDS011;40029;58.708;50.190;2023-03-02T16:02:03;275.10;;;67.13;;
54121;SDS011;40029;58.708;50.190;2023-03-02T16:04:35;266.63;;;64.03;;
54121;SDS011;40029;58.708;50.190;2023-03-02T16:07:25;232.00;;;56.03;;
54121;SDS011;40029;58.708;50.190;2023-03-02T16:09:56;244.67;;;58.47;;
54121;SDS011;40029;58.708;50.190;2023-03-02T16:12:28;214.87;;;54.77;;
54121;SDS011;40029;58.708;50.190;2023-03-02T16:14:59;236.37;;;57.90;;
54121;SDS011;40029;58.708;50.190;2023-03-02T16:17:31;202.07;;;45.70;;
54121;SDS011;40029;58.708;50.190;2023-03-02T16:20:02;227.27;;;55.70;;
54121;SDS011;40029;58.708;50.190;2023-03-02T16:22:34;277.23;;;61.40;;
54121;SDS011;40029;58.708;50.190;2023-03-02T16:25:24;294.67;;;72.33;;
54121;SDS011;40029;58.708;50.190;2023-03-02T16:27:56;320.20;;;82.80;;
54121;SDS011;40029;58.708;50.190;2023-03-02T16:30:28;296.47;;;76.13;;
54121;SDS011;40029;58.708;50.190;2023-03-02T16:33:01;274.63;;;74.70;;
54121;SDS011;40029;58.708;50.190;2023-03-02T16:35:35;195.03;;;52.90;;
54121;SDS011;40029;58.708;50.190;2023-03-02T16:38:07;169.50;;;47.97;;
54121;SDS011;40029;58.708;50.190;2023-03-02T16:40:39;167.13;;;46.73;;
54121;SDS011;40029;58.708;50.190;2023-03-02T16:43:12;140.90;;;37.80;;
54121;SDS011;40029;58.708;50.190;2023-03-02T16:45:43;132.87;;;37.33;;
54121;SDS011;40029;58.708;50.190;2023-03-02T16:48:17;142.02;;;40.13;;
54121;SDS011;40029;58.708;50.190;2023-03-02T16:50:55;121.67;;;37.00;;
54121;SDS011;40029;58.708;50.190;2023-03-02T16:53:29;125.67;;;35.10;;